»·PEaware :: DAL1540 KLAS-KSLC

DAL1540 :: KLAS-KSLC

FLIGHT INFORMATION

Flight Status: Arrived
Operator:
Delta Air Lines
More flights by this operator :: More flights under this callsign
Pilot: Adam H. (32152)
Aircraft: AIRBUS A321
(A321)
More flights by this aircraft type
Origin: KLAS McCarran Intl
United States
Destination: KSLC Salt Lake City Intl
United States
More flights between these airports :: More routes between these airports
Route: +STAAV8 MLF DELTA5
File this flight plan on PilotEdge
Remarks: RMK / SIMBRIEF
Altitude:
(Current/Filed)
35,000ft
Speed:
(Current/Filed)
442kts
Departed: 22-Oct-20 06:12 PM
Arrived: 22-Oct-20 07:13 PM
Distance/Time
Traveled:
319nm/1:01
Distance/Time
To Go:
Arrived

Flight Plot

Page will automatically refresh every two minutes.

Flight plan parsing failed; only flown route is shown


Map Options




Map Legend


Flown Route
Filed Route
Departure Airport
Arrival Airport
Navaid (VOR, NDB)
Fix

Horizontal Profiles

Position Reports

Time Latitude Longitude Heading Altitude Ground
Speed
22-Oct-20 17:24 36.080400 -115.138795 342 2070ft 0kts
22-Oct-20 17:25 36.080400 -115.138795 342 2070ft 0kts
22-Oct-20 17:26 36.080400 -115.138795 342 2070ft 0kts
22-Oct-20 17:27 36.080400 -115.138795 342 2070ft 0kts
22-Oct-20 17:28 36.080400 -115.138795 342 2070ft 0kts
22-Oct-20 17:29 36.080400 -115.138795 342 2070ft 0kts
22-Oct-20 17:30 36.080400 -115.138795 342 2070ft 0kts
22-Oct-20 17:31 36.080400 -115.138795 342 2070ft 0kts
22-Oct-20 17:32 36.080400 -115.138795 342 2070ft 0kts
22-Oct-20 17:34 36.080400 -115.138795 342 2070ft 0kts
22-Oct-20 17:35 36.080400 -115.138795 342 2070ft 0kts
22-Oct-20 17:36 36.080400 -115.138795 342 2070ft 0kts
22-Oct-20 17:37 36.080400 -115.138795 342 2070ft 0kts
22-Oct-20 17:38 36.080400 -115.138795 342 2070ft 0kts
22-Oct-20 17:39 36.080400 -115.138795 342 2070ft 0kts
22-Oct-20 17:40 36.080400 -115.138795 342 2070ft 0kts
22-Oct-20 17:41 36.080400 -115.138795 342 2070ft 0kts
22-Oct-20 17:42 36.080400 -115.138795 342 2070ft 0kts
22-Oct-20 17:43 36.080400 -115.138795 342 2070ft 0kts
22-Oct-20 17:44 36.080400 -115.138795 342 2070ft 0kts
22-Oct-20 17:45 36.080400 -115.138795 342 2070ft 0kts
22-Oct-20 17:46 36.080400 -115.138795 342 2070ft 0kts
22-Oct-20 17:47 36.080400 -115.138795 342 2070ft 0kts
22-Oct-20 17:48 36.080400 -115.138795 342 2070ft 0kts
22-Oct-20 17:49 36.080400 -115.138795 342 2070ft 0kts
22-Oct-20 17:50 36.080400 -115.138795 342 2070ft 0kts
22-Oct-20 17:51 36.080400 -115.138795 342 2070ft 0kts
22-Oct-20 17:52 36.080400 -115.138795 342 2070ft 0kts
22-Oct-20 17:52 36.080400 -115.138795 342 2070ft 0kts
22-Oct-20 17:54 36.080400 -115.138795 342 2070ft 0kts
22-Oct-20 17:54 36.080400 -115.138795 342 2070ft 0kts
22-Oct-20 17:56 36.080400 -115.138795 342 2070ft 0kts
22-Oct-20 17:56 36.080400 -115.138794 340 2070ft 0kts
22-Oct-20 17:57 36.080223 -115.138249 260 2068ft 2kts
22-Oct-20 17:58 36.080196 -115.137902 220 2068ft 4kts
22-Oct-20 17:59 36.079882 -115.138273 223 2069ft 0kts
22-Oct-20 18:00 36.079882 -115.138273 223 2069ft 0kts
22-Oct-20 18:01 36.079872 -115.138285 223 2069ft 0kts
22-Oct-20 18:02 36.079793 -115.138379 224 2070ft 1kts
22-Oct-20 18:03 36.079053 -115.139316 218 2075ft 5kts
22-Oct-20 18:04 36.078249 -115.136697 90 2069ft 17kts
22-Oct-20 18:05 36.078256 -115.131094 89 2053ft 14kts
22-Oct-20 18:06 36.078275 -115.125436 90 2042ft 17kts
22-Oct-20 18:07 36.077495 -115.121467 159 2037ft 0kts
22-Oct-20 18:08 36.077495 -115.121467 159 2037ft 0kts
22-Oct-20 18:09 36.077495 -115.121467 159 2037ft 0kts
22-Oct-20 18:10 36.077495 -115.121467 159 2037ft 0kts
22-Oct-20 18:11 36.076198 -115.122791 281 2039ft 53kts
22-Oct-20 18:12 36.076130 -115.174718 271 2965ft 198kts
22-Oct-20 18:13 36.076421 -115.247213 272 4934ft 233kts
22-Oct-20 18:14 36.120699 -115.294872 348 7731ft 239kts
22-Oct-20 18:15 36.174801 -115.254576 61 10401ft 259kts
22-Oct-20 18:16 36.197091 -115.156779 86 11723ft 330kts
22-Oct-20 18:17 36.198107 -115.031616 87 12875ft 396kts
22-Oct-20 18:18 36.199468 -114.886103 87 14760ft 434kts
22-Oct-20 18:19 36.234866 -114.748725 37 17111ft 436kts
22-Oct-20 18:20 36.333058 -114.656345 34 19310ft 450kts
22-Oct-20 18:21 36.433746 -114.560701 34 21279ft 463kts
22-Oct-20 18:22 36.537539 -114.462853 32 22995ft 474kts
22-Oct-20 18:23 36.650032 -114.374145 28 24726ft 478kts
22-Oct-20 18:24 36.763500 -114.285941 29 26608ft 476kts
22-Oct-20 18:25 36.876086 -114.198147 28 28281ft 473kts
22-Oct-20 18:26 36.987728 -114.110950 28 29775ft 470kts
22-Oct-20 18:27 37.098480 -114.024169 28 31191ft 466kts
22-Oct-20 18:28 37.209183 -113.937417 27 32525ft 461kts
22-Oct-20 18:29 37.318133 -113.851525 27 33768ft 456kts
22-Oct-20 18:30 37.426649 -113.765626 27 34853ft 453kts
22-Oct-20 18:31 37.527067 -113.685855 27 35373ft 451kts
22-Oct-20 18:32 37.633693 -113.600876 26 35379ft 451kts
22-Oct-20 18:33 37.740400 -113.515541 26 35379ft 451kts
22-Oct-20 18:34 37.847524 -113.429558 26 35379ft 451kts
22-Oct-20 18:35 37.954331 -113.343515 27 35377ft 451kts
22-Oct-20 18:36 38.060864 -113.256910 27 35379ft 450kts
22-Oct-20 18:37 38.167206 -113.170881 27 35379ft 450kts
22-Oct-20 18:38 38.273308 -113.084587 26 35380ft 449kts
22-Oct-20 18:39 38.380925 -113.003383 19 35387ft 443kts
22-Oct-20 18:40 38.494752 -112.941798 16 35397ft 440kts
22-Oct-20 18:41 38.608578 -112.881114 16 35402ft 440kts
22-Oct-20 18:42 38.721934 -112.820336 16 35404ft 440kts
22-Oct-20 18:43 38.835193 -112.759377 16 35406ft 438kts
22-Oct-20 18:44 38.948227 -112.698387 16 35408ft 438kts
22-Oct-20 18:45 39.061436 -112.637042 16 35418ft 437kts
22-Oct-20 18:46 39.173997 -112.575920 16 35424ft 436kts
22-Oct-20 18:47 39.286314 -112.515396 13 35140ft 432kts
22-Oct-20 18:48 39.400294 -112.473398 7 34143ft 421kts
22-Oct-20 18:49 39.513865 -112.435887 7 32730ft 422kts
22-Oct-20 18:50 39.628982 -112.397651 7 29757ft 438kts
22-Oct-20 18:51 39.747418 -112.357992 7 26495ft 442kts
22-Oct-20 18:52 39.867394 -112.317331 7 22963ft 445kts
22-Oct-20 18:53 39.983577 -112.278047 7 20609ft 417kts
22-Oct-20 18:54 40.093893 -112.240787 6 18391ft 396kts
22-Oct-20 18:55 40.198511 -112.205462 7 16202ft 381kts
22-Oct-20 18:56 40.299941 -112.170993 8 14027ft 370kts
22-Oct-20 18:57 40.399435 -112.137064 8 13451ft 365kts
22-Oct-20 18:58 40.497787 -112.103520 8 13000ft 378kts
22-Oct-20 18:59 40.601842 -112.080360 358 11772ft 373kts
22-Oct-20 19:00 40.705215 -112.086505 352 11005ft 370kts
22-Oct-20 19:01 40.808048 -112.098673 352 10996ft 371kts
22-Oct-20 19:02 40.911623 -112.110977 351 10991ft 371kts
22-Oct-20 19:03 41.015498 -112.122356 354 10989ft 372kts
22-Oct-20 19:04 41.119719 -112.129249 359 10985ft 374kts
22-Oct-20 19:05 41.194395 -112.047820 78 9047ft 351kts
22-Oct-20 19:06 41.150745 -111.968733 183 8992ft 281kts
22-Oct-20 19:07 41.076823 -111.998131 201 8990ft 277kts
22-Oct-20 19:08 41.000174 -111.999581 175 7986ft 280kts
22-Oct-20 19:09 40.922524 -111.990172 175 6497ft 278kts
22-Oct-20 19:10 40.847703 -111.981566 175 5051ft 247kts
22-Oct-20 19:11 40.790483 -111.974993 175 4225ft 150kts
22-Oct-20 19:12 40.780616 -111.974762 205 4228ft 3kts

Navigation Log

Ident Type
Flight plan parsing failed, navigation log unavailable